Pierre, SD

6:05 PM CDT on March 29, 2015 (GMT -0500)
Winner | | Change Station
CLOSE
Current Station
Airport
Location: Winner,
Elevation: 2031 ft
Nearby Weather Stations

Elev 2031 ft 43.39 °N, 99.84 °W | Updated 12 minutes ago

Clear
Clear
63 °F
Feels Like 63 °F
N
16
Wind Variable Wind from WNW
Gusts 28 mph

Today
High -- | Low -- °F
--% Chance of Precip.
Yesterday
High -- | Low -- °F
Precip. -- in
7:27 AM 8:04 PM
Waxing Gibbous, 75% visible
Pressure 30.07 in
Visibility 10.0 miles
Clouds Clear
Dew Point 19 °F
Humidity 18%
Rainfall 0.00 in
Snow Depth Not available.
UV 2 out of 12
Pollen 8.10 out of 12
Air Quality Not available.
Flu Activity Not available.
METAR KICR 292253Z AUTO 30014G24KT 10SM CLR 17/M07 A3007 RMK AO2 SLP181 T01721072

More Conditions Fewer Conditions

Pressure 30.07 in
Visibility 10.0 miles
Clouds Clear
Dew Point 19 °F
Humidity 18%
Rainfall 0.00 in
Snow Depth Not available.
UV 2 out of 12
Pollen 8.10 out of 12
Air Quality Not available.
Flu Activity Not available.
METAR KICR 292253Z AUTO 30014G24KT 10SM CLR 17/M07 A3007 RMK AO2 SLP181 T01721072

More Conditions Fewer Conditions

10-Day Weather Forecast

Almanac

Astronomy

Mar. 29, 2015 Rise Set
Actual Time
Civil Twilight
Nautical Twilight
Astronomical Twilight
Moon
Length of Visible Light
Length of Day
Tomorrow will be .
, % of the Moon is Illuminated

Today's Extremes

State Highs State Lows

Community

WunderPhotos

Upload Photos

1,809,378 photos uploaded!

WunderBlogs® & News

Nearby

Air Quality

  Air Quality AQ Index Pollutant
Not available.

Snow Depth

Station Depth Elevation

Earthquake Activity

City Distance Mag. Time & Date
Minimum magnitude displayed is 2.5.

Coastal Water Temperatures

Place Temperature

Stations

Nearby Weather Stations

Station Location Temp. Windchill Dew Point Humidity Wind Precip. Elev Updated Type